Time;durP1;ratioP1;P1;durP2;ratioP2;P2;SDS_P1;SDS_P2;PMS_P1;PMS_P2;Temp;Humidity;BMP_temperature;BMP_pressure;BME280_temperature;BME280_humidity;BME280_pressure;Samples;Min_cycle;Max_cycle;Signal;HPM_P1;HPM_P2
2022/05/26 00:01:59;;;;;;;4.03;0.90;;;21.20;51.60;;;;;;5094230;28;20466;-57
2022/05/26 00:04:26;;;;;;;2.30;0.88;;;21.20;51.60;;;;;;5093456;28;20027;-56
2022/05/26 00:06:52;;;;;;;2.40;0.80;;;21.20;51.70;;;;;;5093260;28;20095;-57
2022/05/26 00:09:19;;;;;;;4.93;0.95;;;21.20;51.70;;;;;;5093171;28;20020;-58
2022/05/26 00:11:44;;;;;;;2.80;1.00;;;21.20;51.60;;;;;;5093634;28;20040;-57
2022/05/26 00:14:11;;;;;;;1.77;0.77;;;21.30;51.80;;;;;;5094316;28;20145;-58
2022/05/26 00:16:41;;;;;;;3.50;1.00;;;21.20;51.70;;;;;;5093889;28;20473;-56
2022/05/26 00:19:07;;;;;;;3.20;0.90;;;21.30;51.80;;;;;;5094343;28;20012;-57
2022/05/26 00:21:33;;;;;;;3.15;1.10;;;21.30;51.70;;;;;;5093146;28;20020;-58
2022/05/26 00:23:59;;;;;;;8.85;1.50;;;21.20;51.80;;;;;;5095263;28;20031;-58
2022/05/26 00:26:25;;;;;;;5.05;1.15;;;21.20;51.70;;;;;;5099689;28;20023;-59
2022/05/26 00:28:51;;;;;;;6.25;1.40;;;21.30;51.80;;;;;;5100288;28;20027;-59
2022/05/26 00:31:17;;;;;;;2.38;1.10;;;21.20;51.80;;;;;;5099714;28;20008;-57
2022/05/26 00:33:44;;;;;;;3.33;1.00;;;21.20;51.80;;;;;;5100411;28;20012;-58
2022/05/26 00:36:12;;;;;;;5.28;1.40;;;21.20;51.90;;;;;;5099311;28;20012;-59
2022/05/26 00:38:38;;;;;;;3.22;1.42;;;21.20;51.90;;;;;;5099855;28;20479;-58
2022/05/26 00:41:07;;;;;;;3.65;1.20;;;21.20;51.80;;;;;;5100138;28;20023;-59
2022/05/26 00:43:32;;;;;;;4.00;1.25;;;21.20;51.80;;;;;;5099547;28;20025;-59
2022/05/26 00:46:18;;;;;;;4.72;1.27;;;21.20;51.90;;;;;;5099770;28;20024;-57
2022/05/26 00:48:46;;;;;;;3.65;1.40;;;21.20;51.90;;;;;;5100457;28;20020;-58
2022/05/26 00:51:12;;;;;;;3.42;1.20;;;21.20;51.80;;;;;;5099221;28;20077;-58
2022/05/26 00:53:54;;;;;;;5.13;1.27;;;21.20;51.90;;;;;;5099503;28;20099;-58
2022/05/26 00:56:28;;;;;;;1.85;0.90;;;21.20;51.90;;;;;;5098236;28;20065;-58
2022/05/26 00:58:56;;;;;;;3.78;1.25;;;21.20;51.90;;;;;;5099395;28;20103;-59
2022/05/26 01:01:23;;;;;;;5.65;1.10;;;21.20;51.90;;;;;;5099942;28;20008;-59
2022/05/26 01:03:55;;;;;;;5.65;1.30;;;21.20;52.00;;;;;;5099517;28;20024;-58
2022/05/26 01:06:34;;;;;;;4.35;1.02;;;21.20;52.00;;;;;;5100574;28;20020;-58
2022/05/26 01:09:02;;;;;;;4.53;1.40;;;21.20;52.00;;;;;;5099211;28;20058;-59
2022/05/26 01:11:30;;;;;;;4.55;1.42;;;21.20;51.90;;;;;;5100261;28;20108;-58
2022/05/26 01:14:06;;;;;;;3.28;1.40;;;21.20;52.00;;;;;;5102983;28;20083;-59
2022/05/26 01:16:33;;;;;;;2.88;0.98;;;21.20;52.10;;;;;;5102736;28;20092;-58
2022/05/26 01:19:05;;;;;;;3.28;1.50;;;21.20;52.20;;;;;;5100106;28;20012;-59
2022/05/26 01:21:41;;;;;;;4.05;1.30;;;21.20;52.20;;;;;;5098330;28;20024;-59
2022/05/26 01:24:16;;;;;;;4.55;1.52;;;21.10;52.20;;;;;;5098257;28;20027;-58
2022/05/26 01:27:00;;;;;;;3.83;1.55;;;21.20;52.20;;;;;;5098144;28;20104;-58
2022/05/26 01:29:58;;;;;;;4.43;1.55;;;21.20;52.20;;;;;;5098617;28;20035;-59
2022/05/26 01:32:30;;;;;;;5.18;1.50;;;21.20;52.30;;;;;;5097436;28;20038;-58
2022/05/26 01:35:03;;;;;;;5.45;1.83;;;21.10;52.20;;;;;;5099135;28;20073;-58
2022/05/26 01:38:04;;;;;;;8.50;2.03;;;21.20;52.20;;;;;;5098058;28;20012;-58
2022/05/26 01:40:37;;;;;;;4.63;1.50;;;21.20;52.90;;;;;;5098958;28;20020;-58
2022/05/26 01:43:28;;;;;;;4.38;1.55;;;21.20;52.20;;;;;;5098614;28;20031;-59
2022/05/26 01:46:04;;;;;;;4.72;1.83;;;21.20;52.30;;;;;;5098925;28;20012;-59
2022/05/26 01:48:39;;;;;;;5.88;1.70;;;21.10;52.10;;;;;;5097507;28;20497;-58
2022/05/26 01:51:17;;;;;;;5.75;1.58;;;21.10;52.20;;;;;;5098027;28;20028;-56
2022/05/26 01:53:55;;;;;;;4.90;1.52;;;21.20;52.90;;;;;;5098290;28;20012;-59
2022/05/26 01:56:44;;;;;;;6.15;1.95;;;21.20;52.30;;;;;;5099687;28;20016;-59
2022/05/26 01:59:20;;;;;;;4.10;1.45;;;21.20;52.30;;;;;;5101309;28;20025;-58
2022/05/26 02:01:53;;;;;;;6.15;1.83;;;21.10;52.20;;;;;;5100797;28;20020;-59
2022/05/26 02:04:38;;;;;;;6.07;1.95;;;21.10;52.20;;;;;;5099235;28;20058;-59
2022/05/26 02:07:31;;;;;;;4.18;1.67;;;21.10;52.20;;;;;;5097986;28;20015;-59
2022/05/26 02:09:58;;;;;;;5.30;1.52;;;21.10;52.30;;;;;;5054223;28;20045;-58
2022/05/26 02:12:29;;;;;;;3.85;1.38;;;21.10;52.20;;;;;;5096725;28;20016;-58
2022/05/26 02:15:18;;;;;;;5.85;1.67;;;21.10;52.20;;;;;;5096738;28;20024;-58
2022/05/26 02:17:46;;;;;;;5.43;1.55;;;21.10;52.30;;;;;;5097826;28;20008;-58
2022/05/26 02:20:26;;;;;;;5.53;1.85;;;21.10;52.30;;;;;;5080978;28;20016;-58
2022/05/26 02:22:58;;;;;;;4.72;1.52;;;21.10;52.50;;;;;;5098360;28;20043;-58
2022/05/26 02:25:24;;;;;;;6.22;1.90;;;21.10;52.40;;;;;;5098540;28;20065;-58
2022/05/26 02:27:52;;;;;;;7.55;1.95;;;21.10;52.40;;;;;;5098152;28;20055;-58
2022/05/26 02:30:18;;;;;;;5.82;1.70;;;21.10;52.40;;;;;;5095596;28;20048;-58
2022/05/26 02:32:46;;;;;;;6.75;2.00;;;21.10;52.50;;;;;;5097466;28;20008;-59
2022/05/26 02:35:26;;;;;;;5.97;1.77;;;21.10;52.40;;;;;;5097380;28;20019;-57
2022/05/26 02:37:58;;;;;;;8.67;2.13;;;21.10;52.50;;;;;;5096818;28;20011;-57
2022/05/26 02:40:25;;;;;;;6.43;2.13;;;21.10;52.40;;;;;;5096055;28;20281;-58
2022/05/26 02:42:57;;;;;;;8.50;1.80;;;21.10;52.50;;;;;;5097023;28;20027;-59
2022/05/26 02:45:32;;;;;;;5.18;2.05;;;21.10;52.60;;;;;;5095832;28;20027;-58
2022/05/26 02:48:07;;;;;;;4.78;1.80;;;21.10;52.60;;;;;;5096995;28;20035;-58
2022/05/26 02:50:49;;;;;;;7.60;2.25;;;21.10;52.60;;;;;;5098831;28;20035;-60
2022/05/26 02:53:45;;;;;;;4.63;1.60;;;21.10;52.50;;;;;;5096589;28;20043;-58
2022/05/26 02:56:11;;;;;;;5.55;2.15;;;21.10;52.50;;;;;;5093854;28;20016;-57
2022/05/26 02:59:06;;;;;;;7.40;2.22;;;21.10;52.50;;;;;;5095384;28;20020;-58
2022/05/26 03:01:44;;;;;;;6.35;1.95;;;21.10;52.60;;;;;;5095014;28;20015;-58
2022/05/26 03:04:30;;;;;;;8.88;2.35;;;21.10;52.60;;;;;;5095180;28;20028;-58
2022/05/26 03:07:03;;;;;;;7.30;2.38;;;21.10;52.50;;;;;;5096690;28;20081;-58
2022/05/26 03:09:29;;;;;;;8.02;2.05;;;21.00;52.50;;;;;;5096891;28;20024;-58
2022/05/26 03:11:56;;;;;;;10.80;2.22;;;21.10;52.50;;;;;;5078041;28;20069;-58
2022/05/26 03:14:23;;;;;;;6.45;2.00;;;21.10;52.60;;;;;;5095655;28;20020;-58
2022/05/26 03:16:49;;;;;;;6.85;2.20;;;21.10;52.60;;;;;;5095679;28;20485;-58
2022/05/26 03:19:15;;;;;;;7.47;2.60;;;21.10;52.60;;;;;;5095848;28;20017;-58
2022/05/26 03:21:41;;;;;;;6.78;2.08;;;21.00;52.70;;;;;;5096185;28;20020;-58
2022/05/26 03:24:07;;;;;;;8.93;2.65;;;21.10;52.60;;;;;;5096864;28;20026;-59
2022/05/26 03:26:33;;;;;;;9.05;2.28;;;21.00;52.80;;;;;;5098200;28;20497;-59
2022/05/26 03:29:00;;;;;;;5.90;2.00;;;21.00;52.60;;;;;;5098017;28;20057;-59
2022/05/26 03:31:27;;;;;;;5.22;1.83;;;21.00;52.50;;;;;;5097687;28;20099;-58
2022/05/26 03:42:07;;;;;;;7.50;2.45;;;21.00;52.50;;;;;;5097736;28;20073;-58
2022/05/26 03:44:36;;;;;;;6.72;2.25;;;21.00;52.70;;;;;;5096861;28;20016;-57
2022/05/26 03:47:02;;;;;;;8.60;2.40;;;21.00;52.60;;;;;;5097499;28;20017;-58
2022/05/26 03:49:28;;;;;;;6.30;2.13;;;21.00;52.60;;;;;;5097253;28;20029;-58
2022/05/26 03:51:58;;;;;;;7.43;2.53;;;21.00;52.50;;;;;;5096968;28;20100;-58
2022/05/26 03:54:25;;;;;;;7.00;2.08;;;21.00;52.70;;;;;;5096311;28;20016;-58
2022/05/26 03:56:50;;;;;;;7.10;2.40;;;21.00;52.60;;;;;;5096728;28;20008;-58
2022/05/26 03:59:16;;;;;;;9.30;2.35;;;21.00;52.60;;;;;;5095551;28;20439;-58
2022/05/26 04:01:43;;;;;;;6.50;2.15;;;21.00;52.60;;;;;;5100293;28;20015;-59
2022/05/26 04:04:09;;;;;;;6.68;2.20;;;21.00;52.70;;;;;;5101069;28;20009;-58
2022/05/26 04:06:36;;;;;;;6.57;2.33;;;21.00;52.70;;;;;;5101636;28;20016;-58
2022/05/26 04:09:02;;;;;;;5.53;2.17;;;21.00;52.50;;;;;;5100923;28;20020;-58
2022/05/26 04:11:28;;;;;;;7.65;2.33;;;21.00;52.80;;;;;;5101262;28;20128;-58
2022/05/26 04:13:55;;;;;;;5.47;2.15;;;21.00;52.60;;;;;;5100807;28;20015;-58
2022/05/26 04:16:21;;;;;;;7.80;2.17;;;21.00;52.60;;;;;;5101165;28;20017;-57
2022/05/26 04:18:47;;;;;;;8.20;2.55;;;21.00;52.60;;;;;;5100124;28;20051;-58
2022/05/26 04:21:13;;;;;;;7.03;1.98;;;21.00;52.60;;;;;;5099182;28;20008;-58
2022/05/26 04:23:40;;;;;;;8.85;2.70;;;21.00;52.70;;;;;;5098669;28;20048;-58
2022/05/26 04:26:07;;;;;;;6.93;2.60;;;21.00;52.70;;;;;;5098903;28;20063;-59
2022/05/26 04:28:33;;;;;;;8.40;2.67;;;21.00;52.70;;;;;;5098774;28;20115;-58
2022/05/26 04:30:59;;;;;;;5.90;2.42;;;21.00;52.70;;;;;;5097314;28;20115;-59
2022/05/26 04:33:26;;;;;;;7.88;2.22;;;21.00;52.60;;;;;;5098725;28;20008;-59
2022/05/26 04:35:52;;;;;;;7.95;2.42;;;21.00;52.80;;;;;;5100236;28;20375;-59
2022/05/26 04:38:19;;;;;;;7.22;2.60;;;21.00;52.60;;;;;;5100956;28;20071;-59
2022/05/26 04:40:45;;;;;;;12.43;2.97;;;20.90;53.20;;;;;;5100263;28;20008;-59
2022/05/26 04:43:12;;;;;;;7.63;2.60;;;21.00;52.60;;;;;;5101099;28;20031;-59
2022/05/26 04:45:38;;;;;;;9.63;2.58;;;21.00;52.60;;;;;;5101951;28;20111;-63
2022/05/26 04:48:04;;;;;;;8.43;2.65;;;21.00;52.70;;;;;;5101961;28;20040;-58
2022/05/26 04:50:30;;;;;;;9.45;2.67;;;21.00;52.60;;;;;;5101234;28;20039;-58
2022/05/26 04:52:56;;;;;;;5.90;2.28;;;21.00;52.60;;;;;;5101651;28;20073;-59
2022/05/26 04:55:22;;;;;;;10.63;2.72;;;21.00;52.70;;;;;;5102145;28;20008;-59
2022/05/26 04:57:48;;;;;;;9.70;2.63;;;21.00;52.70;;;;;;5101174;28;20016;-59
2022/05/26 05:00:16;;;;;;;10.23;3.17;;;21.00;52.70;;;;;;5101731;28;20020;-59
2022/05/26 05:02:41;;;;;;;10.80;2.88;;;21.00;52.70;;;;;;5103694;28;20019;-61
2022/05/26 05:05:09;;;;;;;8.63;2.72;;;21.00;52.70;;;;;;5102088;28;20020;-59
2022/05/26 05:07:35;;;;;;;7.47;2.88;;;21.00;52.80;;;;;;5101315;28;20509;-59
2022/05/26 05:10:02;;;;;;;8.68;2.83;;;21.00;52.80;;;;;;5101872;28;20024;-60
2022/05/26 05:12:28;;;;;;;9.10;2.60;;;20.90;52.70;;;;;;5100946;28;20073;-59
2022/05/26 05:14:54;;;;;;;8.65;3.13;;;21.00;52.80;;;;;;5101765;28;20070;-59
2022/05/26 05:17:21;;;;;;;9.95;2.90;;;20.90;52.80;;;;;;5101818;28;20016;-59
2022/05/26 05:19:47;;;;;;;6.72;2.83;;;21.00;53.40;;;;;;5102118;28;20035;-59
2022/05/26 05:22:35;;;;;;;6.95;2.67;;;21.00;52.80;;;;;;5102637;28;20176;-59
2022/05/26 05:25:05;;;;;;;9.80;2.95;;;20.90;52.60;;;;;;5101150;28;20012;-59
2022/05/26 05:27:41;;;;;;;8.35;2.85;;;21.00;52.80;;;;;;5102723;28;20458;-59
2022/05/26 05:30:13;;;;;;;9.73;3.10;;;21.00;52.70;;;;;;5101272;28;20023;-59
2022/05/26 05:32:51;;;;;;;7.60;2.80;;;21.00;52.80;;;;;;5100525;28;20016;-59
2022/05/26 05:35:24;;;;;;;10.55;3.03;;;21.00;52.70;;;;;;5100544;28;20021;-59
2022/05/26 05:37:50;;;;;;;9.63;2.63;;;21.00;52.70;;;;;;5099390;28;20020;-60
2022/05/26 05:40:24;;;;;;;6.00;2.40;;;21.00;52.80;;;;;;5101418;28;20056;-59
2022/05/26 05:42:50;;;;;;;8.27;2.80;;;21.00;52.80;;;;;;5101920;28;20019;-59
2022/05/26 05:45:16;;;;;;;9.38;2.88;;;20.90;52.70;;;;;;5101386;28;20379;-59
2022/05/26 05:47:42;;;;;;;9.32;3.47;;;21.00;52.80;;;;;;5102065;28;20467;-59
2022/05/26 05:50:08;;;;;;;9.65;3.03;;;21.00;52.70;;;;;;5099505;28;20068;-59
2022/05/26 05:52:36;;;;;;;8.05;3.05;;;21.00;52.70;;;;;;5097396;28;20383;-58
2022/05/26 05:55:04;;;;;;;9.45;2.83;;;21.00;52.60;;;;;;5098745;28;20008;-59
2022/05/26 05:57:30;;;;;;;7.57;2.78;;;21.10;52.50;;;;;;5098052;28;20016;-58
2022/05/26 05:59:56;;;;;;;8.82;3.17;;;21.10;52.40;;;;;;5098274;28;20021;-58
2022/05/26 06:02:23;;;;;;;8.20;2.95;;;21.10;52.30;;;;;;5096599;28;20364;-58
2022/05/26 06:04:49;;;;;;;9.35;2.80;;;21.10;52.30;;;;;;5100869;28;20391;-59
2022/05/26 06:07:16;;;;;;;9.68;3.03;;;21.20;52.30;;;;;;5101001;28;20027;-59
2022/05/26 06:09:42;;;;;;;6.93;2.70;;;21.20;52.20;;;;;;5101416;28;20023;-59
2022/05/26 06:12:08;;;;;;;14.95;3.47;;;21.20;52.10;;;;;;5101854;28;20084;-60
2022/05/26 06:14:35;;;;;;;7.85;2.83;;;21.30;52.10;;;;;;5100638;28;20016;-61
2022/05/26 06:17:01;;;;;;;9.57;2.63;;;21.30;52.00;;;;;;5099656;28;20015;-59
2022/05/26 06:19:27;;;;;;;6.75;2.42;;;21.30;51.90;;;;;;5099123;28;20032;-59
2022/05/26 06:21:53;;;;;;;7.68;2.85;;;21.40;51.90;;;;;;5097272;28;20452;-59
2022/05/26 06:24:23;;;;;;;8.98;2.95;;;21.40;51.80;;;;;;5099242;28;20020;-59
2022/05/26 06:26:48;;;;;;;8.68;2.88;;;21.40;51.80;;;;;;5099136;28;20019;-60
2022/05/26 06:37:28;;;;;;;8.60;2.78;;;21.40;51.80;;;;;;5099842;28;20031;-61
2022/05/26 06:39:55;;;;;;;7.88;2.42;;;21.40;51.80;;;;;;5098546;28;20024;-60
2022/05/26 06:42:24;;;;;;;7.72;2.75;;;21.40;51.80;;;;;;5098247;28;20016;-60
2022/05/26 06:44:49;;;;;;;8.30;3.00;;;21.40;51.80;;;;;;5098013;28;20012;-59
2022/05/26 06:47:20;;;;;;;9.95;3.30;;;21.40;51.80;;;;;;5097332;28;20156;-59
2022/05/26 06:49:47;;;;;;;;;;;21.40;51.70;;;;;;5097225;28;20080;-58
2022/05/26 06:52:14;;;;;;;7.55;3.30;;;21.40;51.70;;;;;;5096541;28;20302;-60
2022/05/26 06:54:42;;;;;;;9.15;2.95;;;21.40;51.80;;;;;;5096044;28;20433;-59
2022/05/26 06:57:08;;;;;;;8.52;3.10;;;21.40;51.80;;;;;;5096192;28;20073;-59
2022/05/26 06:59:35;;;;;;;9.85;3.47;;;21.40;51.70;;;;;;5096869;28;20051;-59
2022/05/26 07:02:01;;;;;;;8.48;3.35;;;21.40;51.80;;;;;;5096889;28;20048;-60
2022/05/26 07:04:27;;;;;;;7.80;2.90;;;21.40;51.70;;;;;;5095301;28;20383;-59
2022/05/26 07:06:53;;;;;;;7.82;2.70;;;21.40;51.70;;;;;;5094701;28;20028;-59
2022/05/26 07:09:21;;;;;;;8.82;3.28;;;21.40;51.80;;;;;;5093327;28;20016;-59
2022/05/26 07:11:46;;;;;;;7.88;3.22;;;21.40;51.80;;;;;;5094085;28;20016;-59
2022/05/26 07:14:13;;;;;;;8.82;3.20;;;21.40;51.80;;;;;;5094471;28;20043;-59
2022/05/26 07:16:40;;;;;;;9.77;3.22;;;21.40;51.90;;;;;;5094670;28;20016;-60
2022/05/26 07:19:07;;;;;;;8.88;3.20;;;21.40;51.80;;;;;;5095545;28;20020;-59
2022/05/26 07:21:33;;;;;;;8.50;2.75;;;21.40;51.80;;;;;;5096068;28;20047;-60
2022/05/26 07:23:59;;;;;;;10.35;2.90;;;21.40;51.80;;;;;;5096920;28;20367;-60
2022/05/26 07:26:28;;;;;;;8.65;2.97;;;21.40;51.80;;;;;;5097348;28;20093;-60
2022/05/26 07:28:55;;;;;;;6.05;2.72;;;21.40;51.80;;;;;;5096398;28;20012;-63
2022/05/26 07:31:20;;;;;;;10.77;2.92;;;21.40;51.80;;;;;;5096514;28;20026;-60
2022/05/26 07:33:47;;;;;;;10.07;3.15;;;21.40;51.80;;;;;;5094385;28;20020;-59
2022/05/26 07:41:42;;;;;;;9.07;3.05;;;21.40;51.80;;;;;;5093856;28;20085;-59
2022/05/26 07:44:07;;;;;;;9.18;2.80;;;21.50;51.90;;;;;;5092801;28;20024;-59
2022/05/26 07:46:34;;;;;;;7.70;2.78;;;21.40;51.80;;;;;;5094679;28;20017;-59
2022/05/26 07:49:00;;;;;;;8.88;3.40;;;21.40;51.80;;;;;;5095577;28;20028;-59
2022/05/26 07:51:26;;;;;;;10.93;3.33;;;21.50;51.80;;;;;;5095247;28;20024;-59
2022/05/26 07:53:52;;;;;;;9.43;3.28;;;21.50;51.70;;;;;;5094643;28;20021;-59
2022/05/26 07:56:18;;;;;;;7.78;3.15;;;21.50;51.70;;;;;;5094999;28;20013;-59
2022/05/26 07:58:47;;;;;;;7.30;3.30;;;21.50;51.70;;;;;;5093889;28;20016;-59
2022/05/26 08:01:13;;;;;;;8.30;3.08;;;21.50;51.70;;;;;;5095112;28;20020;-59
2022/05/26 08:03:40;;;;;;;7.55;2.90;;;21.50;51.80;;;;;;5093994;28;20378;-59
2022/05/26 08:06:06;;;;;;;9.95;3.63;;;21.50;51.80;;;;;;5093364;28;20025;-59
2022/05/26 08:08:33;;;;;;;6.40;3.00;;;21.50;51.80;;;;;;5093605;28;20047;-60
2022/05/26 08:10:59;;;;;;;11.38;3.20;;;21.50;51.70;;;;;;5093660;28;20024;-58
2022/05/26 08:13:25;;;;;;;6.85;2.92;;;21.50;51.70;;;;;;5093691;28;20069;-59
2022/05/26 08:15:51;;;;;;;8.57;3.17;;;21.50;51.70;;;;;;5093503;28;20425;-59
2022/05/26 08:18:18;;;;;;;9.10;2.83;;;21.60;51.80;;;;;;5093771;28;20028;-60
2022/05/26 08:20:44;;;;;;;7.22;2.95;;;21.60;51.70;;;;;;5095224;28;20016;-60
2022/05/26 08:23:12;;;;;;;8.38;3.50;;;21.50;51.70;;;;;;5094468;28;20391;-59
2022/05/26 08:25:38;;;;;;;7.85;2.78;;;21.50;51.70;;;;;;5094701;28;20077;-59
2022/05/26 08:28:05;;;;;;;6.35;2.67;;;21.60;51.70;;;;;;5094650;28;20455;-60
2022/05/26 08:30:31;;;;;;;7.13;2.85;;;21.50;51.70;;;;;;5095519;28;20486;-59
2022/05/26 08:32:57;;;;;;;7.40;2.90;;;21.50;51.80;;;;;;5096563;28;20031;-58
2022/05/26 08:35:23;;;;;;;8.38;3.15;;;21.50;51.80;;;;;;5096447;28;20036;-59
2022/05/26 08:37:51;;;;;;;8.75;3.03;;;21.50;51.80;;;;;;5095451;28;20073;-58
2022/05/26 08:40:39;;;;;;;11.77;2.95;;;21.50;51.80;;;;;;5094959;28;20093;-59
2022/05/26 08:43:05;;;;;;;6.43;2.75;;;21.50;51.80;;;;;;5094834;28;20483;-59
2022/05/26 08:45:33;;;;;;;13.05;3.35;;;21.60;51.80;;;;;;5093812;28;20019;-59
2022/05/26 08:47:59;;;;;;;11.13;3.05;;;21.60;51.90;;;;;;5098314;28;20099;-59
2022/05/26 08:50:30;;;;;;;8.82;3.42;;;21.50;51.80;;;;;;5099604;28;20084;-59
2022/05/26 08:53:06;;;;;;;;;;;21.50;51.80;;;;;;5098500;28;20017;-59
2022/05/26 08:55:49;;;;;;;9.02;2.97;;;21.60;52.10;;;;;;5097784;28;19987;-59
2022/05/26 08:58:21;;;;;;;9.00;2.90;;;21.60;51.80;;;;;;5097007;28;20043;-59
2022/05/26 09:00:48;;;;;;;8.88;3.20;;;21.60;52.40;;;;;;5098218;28;20046;-59
2022/05/26 09:03:17;;;;;;;9.98;3.10;;;21.60;52.40;;;;;;5097941;28;20012;-59
2022/05/26 09:05:43;;;;;;;11.50;3.33;;;21.60;51.80;;;;;;5096629;28;20024;-59
2022/05/26 09:13:48;;;;;;;10.27;2.85;;;21.60;51.80;;;;;;5097530;28;20097;-58
2022/05/26 09:16:14;;;;;;;6.97;3.00;;;21.60;51.80;;;;;;5095413;28;20485;-58
2022/05/26 09:18:40;;;;;;;9.25;3.35;;;21.60;51.90;;;;;;5096926;28;20009;-59
2022/05/26 09:21:24;;;;;;;10.75;2.70;;;21.60;51.80;;;;;;5096735;28;20100;-59
2022/05/26 09:23:50;;;;;;;6.28;2.50;;;21.60;51.90;;;;;;5097904;28;20028;-59
2022/05/26 09:26:22;;;;;;;8.50;2.80;;;21.60;51.90;;;;;;5097229;28;20624;-58
2022/05/26 09:28:49;;;;;;;6.78;2.47;;;21.60;51.90;;;;;;5095910;28;20035;-59
2022/05/26 09:31:36;;;;;;;8.30;2.97;;;21.60;51.90;;;;;;5096591;28;20020;-59
2022/05/26 09:34:06;;;;;;;7.78;2.78;;;21.60;51.90;;;;;;5096533;28;20015;-59
2022/05/26 09:36:33;;;;;;;6.82;2.50;;;21.60;51.90;;;;;;5096065;28;20099;-58
2022/05/26 09:39:00;;;;;;;8.68;2.60;;;21.60;51.90;;;;;;5095892;28;20020;-59
2022/05/26 09:41:25;;;;;;;6.68;2.60;;;21.60;51.90;;;;;;5095771;28;20016;-58
2022/05/26 09:43:57;;;;;;;9.50;3.00;;;21.60;51.80;;;;;;5095958;28;20192;-58
2022/05/26 09:46:26;;;;;;;9.23;2.47;;;21.60;51.80;;;;;;5095968;28;20019;-58
2022/05/26 09:48:54;;;;;;;7.22;2.38;;;21.60;51.80;;;;;;5098696;28;20529;-59
2022/05/26 09:51:24;;;;;;;7.57;2.40;;;21.60;51.80;;;;;;5098438;28;20482;-59
2022/05/26 09:53:51;;;;;;;6.32;2.58;;;21.60;51.80;;;;;;5098025;28;20008;-58
2022/05/26 09:56:27;;;;;;;6.45;2.47;;;21.60;51.80;;;;;;5097072;28;20027;-59
2022/05/26 09:58:53;;;;;;;6.25;2.45;;;21.60;51.80;;;;;;5095680;28;20020;-59
2022/05/26 10:01:30;;;;;;;8.40;2.53;;;21.60;51.80;;;;;;5096718;28;20020;-59
2022/05/26 10:04:01;;;;;;;5.10;2.30;;;21.60;51.80;;;;;;5096344;28;20466;-59
2022/05/26 10:06:34;;;;;;;8.38;3.03;;;21.60;51.80;;;;;;5095644;28;20095;-59
2022/05/26 10:09:19;;;;;;;6.63;2.55;;;21.60;51.80;;;;;;5078346;28;20023;-58
2022/05/26 10:11:51;;;;;;;8.27;2.80;;;21.60;51.80;;;;;;5096680;28;20076;-59
2022/05/26 10:14:33;;;;;;;8.27;2.45;;;21.60;51.70;;;;;;5095297;28;20020;-59
2022/05/26 10:17:19;;;;;;;6.57;2.50;;;21.60;51.70;;;;;;5094879;28;20490;-59
2022/05/26 10:20:11;;;;;;;7.95;2.50;;;21.60;51.90;;;;;;5097211;28;20082;-59
2022/05/26 10:22:58;;;;;;;7.38;2.30;;;21.60;51.60;;;;;;5096693;28;20060;-59
2022/05/26 10:25:33;;;;;;;8.85;2.40;;;21.60;51.50;;;;;;5097654;28;20103;-63
2022/05/26 10:28:20;;;;;;;7.55;2.25;;;21.60;51.50;;;;;;5096002;28;20020;-61
2022/05/26 10:30:51;;;;;;;4.75;1.98;;;21.60;51.40;;;;;;5098052;28;20452;-59
2022/05/26 10:33:32;;;;;;;9.07;2.53;;;21.70;51.30;;;;;;5097936;28;20016;-60
2022/05/26 10:36:23;;;;;;;5.60;1.95;;;21.70;51.30;;;;;;5096244;28;20045;-60
2022/05/26 10:39:10;;;;;;;10.07;2.53;;;21.70;51.20;;;;;;5096154;28;20016;-60
2022/05/26 10:41:59;;;;;;;5.43;2.17;;;21.70;51.20;;;;;;5095973;28;20027;-60
2022/05/26 10:44:46;;;;;;;5.65;1.90;;;21.70;51.20;;;;;;5078718;28;20031;-59
2022/05/26 10:47:27;;;;;;;5.72;2.22;;;21.70;51.10;;;;;;5094615;28;20095;-59
2022/05/26 10:50:02;;;;;;;8.65;2.58;;;21.70;50.60;;;;;;5095532;28;20143;-59
2022/05/26 10:52:34;;;;;;;4.75;2.00;;;21.80;51.00;;;;;;5096807;28;20019;-60
2022/05/26 10:55:07;;;;;;;7.70;2.25;;;21.80;50.90;;;;;;5078857;28;20016;-59
2022/05/26 10:57:42;;;;;;;5.32;1.90;;;21.80;50.80;;;;;;5098020;28;20015;-60
2022/05/26 11:00:10;;;;;;;8.05;2.30;;;21.80;50.70;;;;;;5098190;28;20054;-60
2022/05/26 11:02:58;;;;;;;5.85;2.10;;;21.80;50.60;;;;;;5096955;28;20024;-60
2022/05/26 11:05:44;;;;;;;5.25;1.75;;;21.80;50.60;;;;;;5096590;28;20031;-59
2022/05/26 11:08:13;;;;;;;5.82;2.38;;;21.80;50.50;;;;;;5096184;28;20020;-58
2022/05/26 11:10:48;;;;;;;4.63;1.92;;;21.90;50.30;;;;;;5095982;28;20111;-59
2022/05/26 11:13:27;;;;;;;9.40;2.03;;;21.90;50.40;;;;;;5096050;28;20019;-59
2022/05/26 11:18:50;;;;;;;6.53;1.83;;;21.90;50.30;;;;;;5095816;28;20153;-59
2022/05/26 11:21:21;;;;;;;5.43;2.10;;;21.90;50.30;;;;;;5079457;28;20020;-60
2022/05/26 11:23:46;;;;;;;6.13;2.05;;;21.90;50.30;;;;;;5097704;28;20023;-60
2022/05/26 11:26:33;;;;;;;6.75;2.35;;;21.90;50.20;;;;;;5096697;28;20020;-60
2022/05/26 11:29:04;;;;;;;7.10;2.15;;;21.90;50.10;;;;;;5098410;28;20149;-57
2022/05/26 11:37:52;;;;;;;5.50;1.85;;;22.00;50.00;;;;;;5099102;28;20043;-61
2022/05/26 11:40:25;;;;;;;3.40;1.45;;;21.90;50.00;;;;;;5057417;28;20108;-60
2022/05/26 11:42:53;;;;;;;4.55;1.88;;;22.00;49.80;;;;;;5041215;28;20042;-61
2022/05/26 11:45:25;;;;;;;3.55;1.58;;;21.90;49.90;;;;;;5057056;28;20440;-60
2022/05/26 11:48:23;;;;;;;4.75;1.80;;;22.00;49.80;;;;;;5056692;28;20021;-58
2022/05/26 11:50:49;;;;;;;4.28;1.63;;;22.00;49.60;;;;;;5057301;28;20044;-60
2022/05/26 11:53:31;;;;;;;5.78;2.00;;;22.00;49.50;;;;;;5057277;28;20035;-57
2022/05/26 11:56:04;;;;;;;6.53;1.75;;;22.00;49.40;;;;;;5056980;28;20052;-60
2022/05/26 11:58:44;;;;;;;5.43;1.90;;;22.00;49.40;;;;;;5057839;28;20037;-58
2022/05/26 12:01:12;;;;;;;3.17;1.45;;;22.00;49.20;;;;;;5042314;28;20025;-59
2022/05/26 12:03:54;;;;;;;5.63;1.55;;;22.00;49.10;;;;;;5057112;28;20103;-58
2022/05/26 12:06:51;;;;;;;5.30;1.98;;;22.10;49.20;;;;;;5056052;28;20098;-58
2022/05/26 12:09:27;;;;;;;4.70;1.90;;;22.10;49.10;;;;;;5053131;28;20037;-59
2022/05/26 12:12:12;;;;;;;6.60;1.83;;;22.10;49.10;;;;;;5091701;28;20028;-58
2022/05/26 12:14:43;;;;;;;4.43;1.60;;;22.10;49.10;;;;;;5099473;28;20016;-58
2022/05/26 12:17:33;;;;;;;8.82;2.15;;;22.10;48.90;;;;;;5100267;28;20021;-58
2022/05/26 12:20:25;;;;;;;7.30;1.80;;;22.10;48.90;;;;;;5099598;28;20020;-58
2022/05/26 12:22:51;;;;;;;6.30;1.70;;;22.00;49.10;;;;;;5104008;28;20047;-58
2022/05/26 12:25:36;;;;;;;5.03;1.70;;;22.10;49.10;;;;;;5103690;28;20410;-58
2022/05/26 12:28:04;;;;;;;5.72;1.48;;;22.10;48.90;;;;;;5085373;28;20020;-58
2022/05/26 12:30:45;;;;;;;5.93;1.70;;;22.10;48.80;;;;;;5103456;28;20019;-60
2022/05/26 12:33:24;;;;;;;3.30;1.38;;;22.10;48.90;;;;;;5102509;28;20060;-57
2022/05/26 12:36:09;;;;;;;4.07;1.42;;;22.10;48.90;;;;;;5098089;28;20009;-57
2022/05/26 12:38:41;;;;;;;8.80;1.70;;;22.20;48.70;;;;;;5096369;28;20016;-57
2022/05/26 12:41:21;;;;;;;4.70;1.90;;;22.10;48.70;;;;;;5097906;28;20027;-57
2022/05/26 12:44:06;;;;;;;7.30;1.67;;;22.20;48.50;;;;;;5097412;28;20082;-57
2022/05/26 12:46:37;;;;;;;3.50;1.42;;;22.30;48.30;;;;;;5095687;28;20020;-57
2022/05/26 12:49:18;;;;;;;3.95;1.42;;;22.20;48.40;;;;;;5098028;28;20122;-58
2022/05/26 12:51:44;;;;;;;4.38;1.60;;;22.20;48.30;;;;;;5096869;28;20035;-57
2022/05/26 12:54:16;;;;;;;3.10;1.35;;;22.20;48.30;;;;;;5097791;28;20397;-57
2022/05/26 12:57:02;;;;;;;3.40;1.35;;;22.30;48.30;;;;;;5096873;28;20005;-58
2022/05/26 12:59:31;;;;;;;6.95;1.67;;;22.30;48.20;;;;;;5097312;28;20066;-57
2022/05/26 13:01:57;;;;;;;7.13;1.80;;;22.30;48.20;;;;;;5097869;28;20008;-58
2022/05/26 13:04:32;;;;;;;4.53;1.23;;;22.30;48.10;;;;;;5096376;28;20356;-57
2022/05/26 13:06:59;;;;;;;4.82;1.50;;;22.30;48.10;;;;;;5096063;28;20039;-57
2022/05/26 13:09:30;;;;;;;5.95;1.50;;;22.40;48.10;;;;;;5095436;28;20028;-57
2022/05/26 13:11:57;;;;;;;7.07;1.55;;;22.40;48.00;;;;;;5095614;28;20383;-56
2022/05/26 13:14:31;;;;;;;4.57;1.50;;;22.30;48.20;;;;;;5079017;28;20015;-57
2022/05/26 13:17:18;;;;;;;5.65;1.50;;;22.30;48.40;;;;;;5097062;28;20008;-57
2022/05/26 13:19:46;;;;;;;4.30;1.33;;;22.30;48.30;;;;;;5096632;28;20107;-57
2022/05/26 13:22:17;;;;;;;3.72;1.45;;;22.40;48.40;;;;;;5096110;28;20044;-57
2022/05/26 13:24:55;;;;;;;4.85;1.20;;;22.40;48.40;;;;;;5096386;28;20478;-57
2022/05/26 13:27:21;;;;;;;3.75;1.35;;;22.40;48.30;;;;;;5096220;28;20466;-57
2022/05/26 13:29:48;;;;;;;4.45;1.50;;;22.40;48.30;;;;;;5096092;28;20065;-57
2022/05/26 13:35:05;;;;;;;4.20;1.40;;;22.40;48.30;;;;;;5098716;28;20027;-58
2022/05/26 13:37:32;;;;;;;4.57;1.50;;;22.40;48.30;;;;;;5099040;28;20379;-59
2022/05/26 13:40:09;;;;;;;4.15;1.40;;;22.40;48.30;;;;;;5099122;28;20024;-57
2022/05/26 13:42:36;;;;;;;4.57;1.30;;;22.40;48.40;;;;;;5098125;28;20479;-58
2022/05/26 13:45:05;;;;;;;5.50;1.58;;;22.40;48.30;;;;;;5096928;28;20020;-57
2022/05/26 13:47:31;;;;;;;4.65;1.30;;;22.40;48.50;;;;;;5097666;28;20065;-57